CYBL

Campbell River Airport

Campbell River, , Canada
METAR CYBL 100500Z 00000KT 3SM BR OVC004 06/06 A3002 RMK SF8 CIG VRB 3-5 LAST STFD OBS/NEXT 101400 UTC SLP169
Observed Flight Rules
Dec-10 @ 05:00 UTC (2 hours ago) Instrument Flight Rules
Visibility Clouds Conditions
3 miles
  • Overcast at 400' AGL
  • Mist
Temperatures Readings
Current 6°C / 43°F
Dewpoint 6°C / 43°F
Humidity 100%
Altimeter 30.02" Hg
Pressure 1016.9 hPa
Elevation 106
METAR CYBL 100500Z 00000KT 3SM BR OVC004 06/06 A3002 RMK SF8 CIG VRB 3-5 LAST STFD OBS/NEXT 101400 UTC SLP169
Observed Flight Rules
Dec-10 @ 05:00 UTC
(2 hours ago)
LIFR
Clouds
  • Overcast at 400' AGL
Conditions
  • Mist
Temperature Dewpoint
6°C / 43°F 6°C / 43°F
Humidity Altimeter Pressure
100% 30.02" Hg 1016.9 hPa